Time;durP1;ratioP1;P1;durP2;ratioP2;P2;SDS_P1;SDS_P2;PMS_P1;PMS_P2;Temp;Humidity;BMP_temperature;BMP_pressure;BME280_temperature;BME280_humidity;BME280_pressure;Samples;Min_cycle;Max_cycle;Signal;HPM_P1;HPM_P2
2023/05/26 00:00:32;;;;;;;181.90;166.95;;;;;;;16.32;100.00;101110.59;4981812;28;20054;-76
2023/05/26 00:02:59;;;;;;;170.93;156.43;;;;;;;16.30;100.00;101104.66;4987084;28;20795;-76
2023/05/26 00:05:27;;;;;;;187.18;172.55;;;;;;;16.58;100.00;101103.94;4983483;28;20065;-76
2023/05/26 00:07:54;;;;;;;152.57;140.13;;;;;;;16.70;100.00;101101.19;4984698;28;20101;-77
2023/05/26 00:10:21;;;;;;;215.93;199.82;;;;;;;16.82;100.00;101104.69;4985883;28;20051;-76
2023/05/26 00:12:49;;;;;;;174.23;160.00;;;;;;;16.70;100.00;101099.34;4983896;28;20448;-76
2023/05/26 00:15:16;;;;;;;200.15;184.60;;;;;;;16.67;100.00;101107.88;4982974;28;20058;-76
2023/05/26 00:17:43;;;;;;;157.57;143.95;;;;;;;16.72;100.00;101105.28;4986435;28;20516;-76
2023/05/26 00:20:11;;;;;;;161.40;147.60;;;;;;;16.53;100.00;101101.13;4985605;28;20140;-76
2023/05/26 00:22:38;;;;;;;178.45;163.05;;;;;;;16.66;100.00;101108.91;4980406;28;20523;-82
2023/05/26 00:25:05;;;;;;;174.85;159.77;;;;;;;16.64;100.00;101110.19;4981285;28;20051;-82
2023/05/26 00:27:32;;;;;;;188.02;172.45;;;;;;;16.70;100.00;101119.97;4989354;28;20531;-82
2023/05/26 00:30:00;;;;;;;196.90;180.77;;;;;;;16.75;100.00;101130.81;4989450;28;20050;-82
2023/05/26 00:32:27;;;;;;;202.43;185.93;;;;;;;16.65;100.00;101119.88;4985272;28;20442;-82
2023/05/26 00:34:54;;;;;;;190.52;174.27;;;;;;;16.19;100.00;101110.84;4987056;28;20074;-82
2023/05/26 00:37:22;;;;;;;207.00;189.75;;;;;;;16.37;100.00;101121.44;4991380;28;20054;-76
2023/05/26 00:39:49;;;;;;;199.35;182.45;;;;;;;16.33;100.00;101119.44;4980268;28;20054;-76
2023/05/26 00:42:16;;;;;;;179.60;164.35;;;;;;;16.37;100.00;101125.97;4982492;28;20046;-77
2023/05/26 00:44:43;;;;;;;193.48;176.85;;;;;;;16.38;100.00;101116.88;4984534;28;20058;-76
2023/05/26 00:47:12;;;;;;;190.18;174.38;;;;;;;15.73;100.00;101126.66;4987655;28;20054;-82
2023/05/26 00:49:39;;;;;;;203.23;186.73;;;;;;;16.01;100.00;101117.94;4985764;28;20046;-77
2023/05/26 00:52:07;;;;;;;231.63;213.60;;;;;;;15.77;100.00;101113.63;4982859;28;20496;-76
2023/05/26 00:54:34;;;;;;;190.43;174.70;;;;;;;15.89;100.00;101109.09;4984728;28;20050;-76
2023/05/26 00:57:02;;;;;;;215.50;198.40;;;;;;;16.08;100.00;101117.00;4979187;28;20051;-76
2023/05/26 00:59:29;;;;;;;168.32;153.85;;;;;;;16.17;100.00;101116.44;4978380;28;20499;-76
2023/05/26 01:01:56;;;;;;;178.15;163.15;;;;;;;16.10;100.00;101112.25;4990902;28;20424;-76
2023/05/26 01:04:24;;;;;;;181.05;166.07;;;;;;;16.03;100.00;101115.03;4979194;28;20058;-77
2023/05/26 01:06:52;;;;;;;185.75;169.77;;;;;;;15.65;100.00;101126.13;4985774;28;20061;-76
2023/05/26 01:09:19;;;;;;;217.20;199.90;;;;;;;15.92;100.00;101119.34;4980838;28;20149;-76
2023/05/26 01:11:51;;;;;;;212.32;194.73;;;;;;;15.83;100.00;101118.03;4977866;28;20080;-76
2023/05/26 01:14:26;;;;;;;197.55;181.30;;;;;;;15.60;100.00;101117.97;4983371;28;20042;-76
2023/05/26 01:16:58;;;;;;;193.43;177.43;;;;;;;15.89;100.00;101130.50;4983493;28;20050;-76
2023/05/26 01:19:52;;;;;;;183.25;167.82;;;;;;;16.02;100.00;101124.13;4985379;28;20058;-77
2023/05/26 01:22:28;;;;;;;167.70;153.00;;;;;;;16.00;100.00;101127.00;4981192;28;20112;-78
2023/05/26 01:25:06;;;;;;;183.50;167.68;;;;;;;16.01;100.00;101131.34;4984727;28;20050;-76
2023/05/26 01:27:45;;;;;;;166.43;152.25;;;;;;;15.79;100.00;101120.38;4974864;28;20050;-82
2023/05/26 01:30:14;;;;;;;144.70;131.40;;;;;;;15.61;100.00;101122.25;4988686;28;20054;-82
2023/05/26 01:32:47;;;;;;;172.02;157.13;;;;;;;16.01;100.00;101128.66;4984010;28;20050;-82
2023/05/26 01:35:14;;;;;;;183.65;168.18;;;;;;;16.23;100.00;101142.28;4974452;28;20082;-82
2023/05/26 01:37:42;;;;;;;186.88;171.15;;;;;;;16.20;100.00;101136.59;4991280;28;20054;-82
2023/05/26 01:40:11;;;;;;;199.85;183.70;;;;;;;16.11;100.00;101129.94;4980207;28;20436;-82
2023/05/26 01:42:42;;;;;;;190.88;175.20;;;;;;;15.95;100.00;101124.22;4987272;28;20051;-82
2023/05/26 01:45:16;;;;;;;198.32;182.43;;;;;;;16.09;100.00;101126.69;4974111;28;20047;-82
2023/05/26 01:47:46;;;;;;;205.30;188.70;;;;;;;15.86;100.00;101124.81;4979342;28;20133;-82
2023/05/26 01:50:14;;;;;;;173.02;158.38;;;;;;;15.57;100.00;101120.03;4983742;28;20343;-82
2023/05/26 01:52:44;;;;;;;191.60;176.00;;;;;;;15.66;100.00;101125.06;4984994;28;20042;-82
2023/05/26 01:55:13;;;;;;;183.85;168.73;;;;;;;15.69;100.00;101124.66;4986093;28;20058;-82
2023/05/26 01:57:43;;;;;;;192.02;176.43;;;;;;;15.79;100.00;101122.22;4975655;28;20465;-82
2023/05/26 02:00:11;;;;;;;172.35;157.13;;;;;;;15.85;100.00;101137.34;4987265;28;20054;-82
2023/05/26 02:02:40;;;;;;;174.70;159.98;;;;;;;15.90;100.00;101125.97;4978439;28;20058;-77
2023/05/26 02:05:08;;;;;;;201.63;185.60;;;;;;;15.63;100.00;101115.63;4988836;28;20541;-82
2023/05/26 02:07:35;;;;;;;197.27;181.05;;;;;;;15.78;100.00;101128.63;4985775;28;20108;-82
2023/05/26 02:10:03;;;;;;;221.45;203.90;;;;;;;15.81;100.00;101130.84;4983164;28;20512;-82
2023/05/26 02:12:30;;;;;;;221.38;203.68;;;;;;;15.64;100.00;101121.81;4991505;28;20081;-82
2023/05/26 02:14:56;;;;;;;213.32;196.75;;;;;;;15.41;100.00;101127.94;4989101;28;20078;-82
2023/05/26 02:17:23;;;;;;;224.40;207.10;;;;;;;15.37;100.00;101124.91;4986109;28;20055;-82
2023/05/26 02:19:52;;;;;;;228.18;210.38;;;;;;;15.32;100.00;101125.56;4990202;28;20511;-82
2023/05/26 02:22:19;;;;;;;236.55;217.90;;;;;;;15.42;100.00;101132.22;4990641;28;20049;-82
2023/05/26 02:24:46;;;;;;;221.95;203.85;;;;;;;15.10;100.00;101121.75;4983082;28;20054;-82
2023/05/26 02:27:13;;;;;;;204.18;187.90;;;;;;;15.21;100.00;101114.81;4985604;28;20065;-83
2023/05/26 02:29:40;;;;;;;171.20;157.02;;;;;;;15.22;100.00;101114.59;4987420;28;20404;-82
2023/05/26 02:32:07;;;;;;;185.15;169.88;;;;;;;15.40;100.00;101111.06;4986738;28;20439;-82
2023/05/26 02:34:34;;;;;;;176.13;161.35;;;;;;;15.40;100.00;101115.56;4985955;28;20109;-83
2023/05/26 02:37:02;;;;;;;192.98;177.32;;;;;;;15.10;100.00;101116.41;4988914;28;20440;-82
2023/05/26 02:39:29;;;;;;;170.70;156.32;;;;;;;15.24;100.00;101107.13;4983340;28;20089;-83
2023/05/26 02:41:56;;;;;;;174.80;160.35;;;;;;;15.25;100.00;101105.28;4984082;28;20054;-82
2023/05/26 02:44:23;;;;;;;153.18;139.05;;;;;;;15.14;100.00;101103.41;4984010;28;20416;-82
2023/05/26 02:46:50;;;;;;;119.10;107.85;;;;;;;14.63;100.00;101108.13;4974844;28;20508;-82
2023/05/26 02:49:17;;;;;;;108.88;98.20;;;;;;;14.60;100.00;101103.22;4984227;28;20054;-82
2023/05/26 02:51:44;;;;;;;102.15;91.43;;;;;;;14.75;100.00;101106.34;4987944;28;20066;-82
2023/05/26 02:54:12;;;;;;;109.45;99.15;;;;;;;14.89;100.00;101102.47;4994462;28;20499;-77
2023/05/26 02:56:39;;;;;;;127.60;115.85;;;;;;;15.11;100.00;101107.34;4990000;28;20050;-77
2023/05/26 02:59:06;;;;;;;113.25;102.35;;;;;;;15.17;100.00;101108.28;4985063;28;20050;-76
2023/05/26 03:01:33;;;;;;;104.63;94.07;;;;;;;15.18;100.00;101115.25;4979933;28;20086;-77
2023/05/26 03:04:00;;;;;;;110.63;99.72;;;;;;;15.23;100.00;101118.09;4982750;28;20050;-76
2023/05/26 03:06:28;;;;;;;115.55;104.40;;;;;;;15.17;100.00;101135.84;4986705;28;20050;-77
2023/05/26 03:08:55;;;;;;;114.18;103.03;;;;;;;15.00;100.00;101124.94;4986388;28;20058;-77
2023/05/26 03:11:23;;;;;;;103.78;93.45;;;;;;;15.26;100.00;101118.44;4982665;28;20047;-77
2023/05/26 03:13:50;;;;;;;115.80;104.88;;;;;;;15.37;100.00;101118.69;4983003;28;20538;-77
2023/05/26 03:16:17;;;;;;;119.53;106.97;;;;;;;15.52;100.00;101119.09;4983417;28;20047;-76
2023/05/26 03:18:44;;;;;;;123.05;111.82;;;;;;;15.56;100.00;101123.78;4987069;28;20050;-76
2023/05/26 03:21:11;;;;;;;119.57;107.88;;;;;;;15.72;100.00;101126.88;4978083;28;20065;-77
2023/05/26 03:23:38;;;;;;;123.13;112.00;;;;;;;15.66;100.00;101114.38;4981961;28;20050;-76
2023/05/26 03:26:05;;;;;;;112.35;101.72;;;;;;;15.29;100.00;101119.84;4986576;28;20046;-77
2023/05/26 03:28:33;;;;;;;129.52;117.80;;;;;;;15.67;100.00;101116.00;4991344;28;20046;-81
2023/05/26 03:31:00;;;;;;;129.85;116.93;;;;;;;15.77;100.00;101117.09;4989594;28;20134;-81
2023/05/26 03:33:28;;;;;;;120.85;109.57;;;;;;;15.87;100.00;101123.75;4983788;28;20053;-77
2023/05/26 03:35:55;;;;;;;131.38;119.35;;;;;;;15.92;100.00;101122.00;4977857;28;20082;-82
2023/05/26 03:38:22;;;;;;;138.32;125.63;;;;;;;16.01;100.00;101123.31;4976484;28;20047;-82
2023/05/26 03:40:49;;;;;;;125.55;114.05;;;;;;;16.19;100.00;101134.97;4989811;28;20137;-82
2023/05/26 03:43:16;;;;;;;123.18;111.57;;;;;;;16.01;100.00;101135.88;4982435;28;20062;-82
2023/05/26 03:45:44;;;;;;;124.95;112.97;;;;;;;16.27;100.00;101140.78;4983233;28;20409;-82
2023/05/26 03:48:12;;;;;;;121.47;109.40;;;;;;;16.13;100.00;101138.59;4981815;28;20495;-82
2023/05/26 03:50:39;;;;;;;128.55;116.25;;;;;;;16.31;100.00;101141.16;4987946;28;20428;-82
2023/05/26 03:53:06;;;;;;;146.23;132.85;;;;;;;16.52;100.00;101146.94;4981359;28;20523;-82
2023/05/26 03:55:33;;;;;;;124.43;112.38;;;;;;;16.72;100.00;101152.75;4975854;28;20409;-82
2023/05/26 03:58:00;;;;;;;133.32;120.63;;;;;;;16.85;100.00;101149.00;4979701;28;20104;-82
2023/05/26 04:00:28;;;;;;;129.02;117.07;;;;;;;17.06;100.00;101151.06;4977702;28;20050;-82
2023/05/26 04:02:57;;;;;;;125.50;114.30;;;;;;;16.92;100.00;101160.44;4977233;28;20051;-82
2023/05/26 04:05:24;;;;;;;129.40;117.38;;;;;;;16.75;100.00;101156.81;4989012;28;20039;-83
2023/05/26 04:07:51;;;;;;;115.47;104.63;;;;;;;16.75;100.00;101148.78;4977683;28;20046;-83
2023/05/26 04:10:18;;;;;;;117.10;106.30;;;;;;;16.87;100.00;101152.28;4981736;28;20051;-83
2023/05/26 04:12:45;;;;;;;116.38;105.55;;;;;;;16.78;100.00;101151.03;4980989;28;20168;-83
2023/05/26 04:15:12;;;;;;;113.57;102.95;;;;;;;16.74;100.00;101155.22;4981201;28;20447;-83
2023/05/26 04:17:39;;;;;;;126.93;115.65;;;;;;;16.99;100.00;101153.06;4984963;28;20438;-83
2023/05/26 04:20:10;;;;;;;122.13;111.03;;;;;;;16.72;100.00;101147.38;4986063;28;20438;-83
2023/05/26 04:22:37;;;;;;;117.72;106.82;;;;;;;16.82;100.00;101142.25;4983969;28;20054;-83
2023/05/26 04:25:04;;;;;;;109.80;99.53;;;;;;;17.10;100.00;101143.38;4979064;28;20061;-83
2023/05/26 04:27:31;;;;;;;114.25;103.78;;;;;;;17.23;100.00;101140.38;4985290;28;20152;-83
2023/05/26 04:30:00;;;;;;;117.05;106.55;;;;;;;17.19;100.00;101147.28;4985975;28;20050;-83
2023/05/26 04:32:28;;;;;;;113.60;103.70;;;;;;;17.00;100.00;101146.63;4986492;28;20101;-83
2023/05/26 04:34:55;;;;;;;112.55;102.32;;;;;;;17.26;100.00;101147.94;4981271;28;20089;-83
2023/05/26 04:37:26;;;;;;;125.95;114.57;;;;;;;17.40;100.00;101153.88;4988812;28;20081;-83
2023/05/26 04:39:53;;;;;;;131.27;119.68;;;;;;;17.27;100.00;101159.50;4987084;28;20507;-83
2023/05/26 04:42:20;;;;;;;124.10;112.68;;;;;;;17.37;100.00;101155.16;4980095;28;20586;-83
2023/05/26 04:44:47;;;;;;;126.13;114.53;;;;;;;17.37;100.00;101157.03;4983508;28;20057;-83
2023/05/26 04:47:16;;;;;;;133.48;121.55;;;;;;;17.65;100.00;101163.44;4988969;28;20472;-82
2023/05/26 04:49:43;;;;;;;127.32;116.07;;;;;;;17.72;100.00;101175.63;4986853;28;20042;-82
2023/05/26 04:52:10;;;;;;;121.35;110.45;;;;;;;17.65;100.00;101160.75;4989710;28;20061;-83
2023/05/26 04:54:40;;;;;;;113.03;102.70;;;;;;;17.84;100.00;101168.34;4990596;28;20061;-83
2023/05/26 04:57:07;;;;;;;113.57;102.95;;;;;;;17.90;100.00;101168.44;4989086;28;20073;-83
2023/05/26 04:59:37;;;;;;;106.43;97.13;;;;;;;17.55;100.00;101178.31;4989309;28;20058;-83
2023/05/26 05:02:04;;;;;;;106.75;97.15;;;;;;;17.68;100.00;101174.50;4987867;28;20146;-83
2023/05/26 05:04:31;;;;;;;116.25;105.68;;;;;;;17.76;100.00;101178.66;4990831;28;20042;-83
2023/05/26 05:06:58;;;;;;;114.05;103.65;;;;;;;17.98;100.00;101189.53;4990884;28;20428;-83
2023/05/26 05:09:25;;;;;;;117.40;107.07;;;;;;;18.34;100.00;101201.69;4980543;28;20086;-83
2023/05/26 05:11:54;;;;;;;128.55;117.82;;;;;;;18.12;100.00;101198.09;4975700;28;20051;-83
2023/05/26 05:14:20;;;;;;;122.63;112.28;;;;;;;18.39;100.00;101196.34;4981622;28;20042;-83
2023/05/26 05:16:55;;;;;;;126.18;116.07;;;;;;;18.67;100.00;101197.28;4987105;28;20053;-83
2023/05/26 05:19:22;;;;;;;129.70;118.85;;;;;;;18.14;100.00;101194.09;4983356;28;20050;-83
2023/05/26 05:21:49;;;;;;;108.00;99.00;;;;;;;17.80;100.00;101179.84;4975060;28;20440;-83
2023/05/26 05:24:16;;;;;;;112.43;103.13;;;;;;;17.85;100.00;101191.50;4987810;28;20042;-83
2023/05/26 05:26:43;;;;;;;107.68;98.28;;;;;;;17.81;100.00;101182.28;4981785;28;20535;-83
2023/05/26 05:29:11;;;;;;;121.40;111.28;;;;;;;18.77;100.00;101194.78;4988755;28;20049;-83
2023/05/26 05:31:38;;;;;;;121.07;110.63;;;;;;;18.88;100.00;101193.03;4985942;28;20435;-82
2023/05/26 05:34:05;;;;;;;113.80;104.43;;;;;;;18.69;100.00;101195.19;4987245;28;20050;-83
2023/05/26 05:36:33;;;;;;;120.80;111.15;;;;;;;18.58;100.00;101204.16;4978600;28;20511;-83
2023/05/26 05:39:00;;;;;;;122.75;112.70;;;;;;;18.99;100.00;101189.41;4988031;28;20057;-83
2023/05/26 05:41:26;;;;;;;112.60;103.78;;;;;;;18.73;100.00;101189.09;4990834;28;20051;-83
2023/05/26 05:43:56;;;;;;;116.50;107.25;;;;;;;18.83;100.00;101191.09;4929562;28;20293;-83
2023/05/26 05:46:25;;;;;;;116.93;107.57;;;;;;;19.19;100.00;101189.66;4990724;28;20068;-84
2023/05/26 05:48:52;;;;;;;113.97;104.68;;;;;;;18.96;100.00;101193.41;4984380;28;20057;-84
2023/05/26 05:51:18;;;;;;;113.40;104.28;;;;;;;19.14;100.00;101196.84;4981282;28;20042;-83
2023/05/26 05:53:45;;;;;;;121.10;110.88;;;;;;;18.92;100.00;101194.19;4984234;28;20054;-83
2023/05/26 05:56:12;;;;;;;118.75;108.57;;;;;;;18.49;100.00;101191.16;4988082;28;20049;-83
2023/05/26 05:58:40;;;;;;;108.13;99.53;;;;;;;18.50;100.00;101197.34;4988127;28;20056;-83
2023/05/26 06:01:07;;;;;;;120.18;110.30;;;;;;;18.67;100.00;101200.81;4990191;28;20134;-83
2023/05/26 06:03:36;;;;;;;117.97;108.43;;;;;;;18.50;100.00;101200.03;4988265;28;20534;-84
2023/05/26 06:06:02;;;;;;;119.72;109.95;;;;;;;18.36;100.00;101204.09;4983259;28;20051;-84
2023/05/26 06:08:29;;;;;;;121.63;111.40;;;;;;;18.19;100.00;101204.13;4986205;28;20046;-83
2023/05/26 06:10:56;;;;;;;136.40;125.03;;;;;;;18.86;100.00;101192.47;4986998;28;20046;-83
2023/05/26 06:13:23;;;;;;;137.35;125.72;;;;;;;19.07;100.00;101191.66;4992535;28;20047;-83
2023/05/26 06:15:50;;;;;;;127.55;116.75;;;;;;;19.05;100.00;101198.38;4986214;28;20108;-84
2023/05/26 06:18:18;;;;;;;115.90;106.10;;;;;;;18.81;100.00;101195.09;4988682;28;20050;-83
2023/05/26 06:20:46;;;;;;;104.28;96.05;;;;;;;18.72;100.00;101190.09;4990000;28;20077;-83
2023/05/26 06:23:13;;;;;;;119.20;109.18;;;;;;;19.09;100.00;101199.47;4996100;28;20434;-84
2023/05/26 06:25:40;;;;;;;115.82;106.32;;;;;;;19.74;100.00;101187.84;4994314;28;20054;-83
2023/05/26 06:28:06;;;;;;;119.85;110.38;;;;;;;20.10;100.00;101197.03;4979694;28;20058;-83
2023/05/26 06:30:33;;;;;;;112.07;102.88;;;;;;;19.60;100.00;101187.38;4979243;28;20046;-83
2023/05/26 06:33:00;;;;;;;102.28;94.18;;;;;;;19.42;100.00;101193.13;4980950;28;20107;-84
2023/05/26 06:35:27;;;;;;;106.07;97.45;;;;;;;19.44;100.00;101186.41;4981048;28;20050;-83
2023/05/26 06:37:55;;;;;;;119.10;110.13;;;;;;;20.33;100.00;101178.84;4977541;28;20512;-84
2023/05/26 06:40:26;;;;;;;89.03;82.38;;;;;;;20.06;100.00;101181.63;4992922;28;20051;-84
2023/05/26 06:42:53;;;;;;;87.97;81.28;;;;;;;19.89;100.00;101173.69;4981615;28;20058;-83
2023/05/26 06:45:20;;;;;;;82.50;76.25;;;;;;;20.67;100.00;101182.06;4986971;28;20050;-83
2023/05/26 06:47:48;;;;;;;107.32;99.30;;;;;;;20.74;100.00;101179.13;4983684;28;20539;-83
2023/05/26 06:50:15;;;;;;;79.93;73.82;;;;;;;20.80;100.00;101178.88;4991540;28;20046;-83
2023/05/26 06:52:42;;;;;;;76.15;70.50;;;;;;;20.70;100.00;101175.34;4990037;28;20050;-84
2023/05/26 06:55:10;;;;;;;64.45;59.50;;;;;;;20.91;100.00;101179.75;4985140;28;20463;-78
2023/05/26 06:57:37;;;;;;;71.43;65.93;;;;;;;20.94;100.00;101181.94;4993147;28;20049;-84
2023/05/26 07:00:05;;;;;;;56.03;51.63;;;;;;;20.11;100.00;101179.78;4989725;28;20061;-77
2023/05/26 07:02:32;;;;;;;66.75;61.55;;;;;;;20.23;100.00;101182.28;4989128;28;20042;-83
2023/05/26 07:04:59;;;;;;;73.65;67.95;;;;;;;20.41;100.00;101191.03;4980609;28;20496;-83
2023/05/26 07:07:26;;;;;;;61.58;56.63;;;;;;;20.30;100.00;101187.47;4986375;28;20401;-83
2023/05/26 07:09:53;;;;;;;61.03;56.22;;;;;;;20.29;100.00;101194.75;4983716;28;20054;-83
2023/05/26 07:12:22;;;;;;;72.72;66.78;;;;;;;20.67;100.00;101194.75;4983289;28;20051;-84
2023/05/26 07:14:48;;;;;;;64.43;58.90;;;;;;;20.83;100.00;101199.16;4981499;28;20057;-77
2023/05/26 07:17:15;;;;;;;59.13;54.17;;;;;;;20.86;100.00;101201.31;4982810;28;20053;-77
2023/05/26 07:19:42;;;;;;;59.67;55.00;;;;;;;20.73;100.00;101188.31;4981178;28;20054;-77
2023/05/26 07:22:09;;;;;;;41.90;38.30;;;;;;;20.37;100.00;101198.84;4980704;28;20046;-77
2023/05/26 07:24:36;;;;;;;47.17;42.88;;;;;;;21.19;100.00;101196.59;4976066;28;20429;-77
2023/05/26 07:27:03;;;;;;;44.28;40.65;;;;;;;21.73;100.00;101188.09;4979129;28;20053;-77
2023/05/26 07:29:32;;;;;;;46.55;42.58;;;;;;;21.67;100.00;101189.97;4981178;28;20050;-77
2023/05/26 07:31:58;;;;;;;46.55;42.70;;;;;;;22.19;100.00;101182.72;4980136;28;20054;-77
2023/05/26 07:34:26;;;;;;;48.33;43.92;;;;;;;22.38;100.00;101194.56;4981615;28;20054;-77
2023/05/26 07:36:52;;;;;;;56.20;51.67;;;;;;;22.93;100.00;101196.59;4982076;28;20081;-77
2023/05/26 07:39:19;;;;;;;56.08;51.45;;;;;;;22.79;100.00;101193.69;4983620;28;20512;-77
2023/05/26 07:41:46;;;;;;;42.30;38.83;;;;;;;22.37;100.00;101190.25;4980539;28;20472;-77
2023/05/26 07:44:13;;;;;;;44.97;41.28;;;;;;;22.38;100.00;101193.78;4981161;28;20055;-77
2023/05/26 07:46:41;;;;;;;36.65;33.70;;;;;;;22.14;100.00;101190.78;4979894;28;20050;-77
2023/05/26 07:49:08;;;;;;;38.42;34.63;;;;;;;22.29;100.00;101196.22;4982376;28;20057;-77
2023/05/26 07:51:35;;;;;;;44.42;40.78;;;;;;;22.70;100.00;101189.91;4980603;28;20050;-77
2023/05/26 07:54:02;;;;;;;40.83;37.63;;;;;;;22.47;100.00;101189.41;4979962;28;20058;-84
2023/05/26 07:56:29;;;;;;;32.72;29.92;;;;;;;22.24;100.00;101190.00;4982596;28;20046;-83
2023/05/26 07:58:58;;;;;;;33.90;31.17;;;;;;;22.17;100.00;101182.16;4979646;28;20439;-84
2023/05/26 08:01:28;;;;;;;27.95;25.50;;;;;;;22.29;100.00;101173.75;4980624;28;20047;-83
2023/05/26 08:03:58;;;;;;;32.90;30.30;;;;;;;22.78;100.00;101184.72;4982035;28;20058;-83
2023/05/26 08:06:25;;;;;;;32.22;29.67;;;;;;;22.67;100.00;101182.34;4984172;28;20310;-84
2023/05/26 08:08:52;;;;;;;27.83;25.50;;;;;;;22.11;100.00;101165.09;4985599;28;20502;-83
2023/05/26 08:11:18;;;;;;;32.80;30.08;;;;;;;22.73;100.00;101165.00;4982351;28;20131;-84
2023/05/26 08:13:45;;;;;;;30.00;27.88;;;;;;;22.90;100.00;101164.66;4981256;28;20439;-84
2023/05/26 08:16:12;;;;;;;31.10;28.80;;;;;;;22.11;100.00;101164.28;4983621;28;20085;-84
2023/05/26 08:18:39;;;;;;;32.25;29.95;;;;;;;22.71;100.00;101165.25;4975344;28;20444;-83
2023/05/26 08:21:07;;;;;;;28.10;26.05;;;;;;;22.45;100.00;101166.41;4984694;28;20042;-83
2023/05/26 08:23:34;;;;;;;34.90;32.10;;;;;;;23.42;100.00;101171.44;4978295;28;20062;-84
2023/05/26 08:26:01;;;;;;;32.45;29.92;;;;;;;23.92;100.00;101164.06;4982446;28;20074;-83
2023/05/26 08:28:28;;;;;;;33.25;30.70;;;;;;;23.79;100.00;101159.28;4974977;28;20042;-77
2023/05/26 08:30:55;;;;;;;26.55;24.42;;;;;;;23.54;100.00;101163.75;4989174;28;20054;-83
2023/05/26 08:33:22;;;;;;;25.92;24.02;;;;;;;22.86;100.00;101162.50;4993881;28;20049;-77
2023/05/26 08:35:49;;;;;;;28.23;26.08;;;;;;;23.25;100.00;101159.09;4982976;28;20046;-77
2023/05/26 08:38:18;;;;;;;26.00;24.30;;;;;;;22.81;100.00;101161.69;4980739;28;20050;-77
2023/05/26 08:40:45;;;;;;;26.33;24.42;;;;;;;23.49;100.00;101156.50;4978128;28;20050;-83
2023/05/26 08:43:16;;;;;;;32.30;29.90;;;;;;;24.19;100.00;101156.19;4982960;28;20050;-83
2023/05/26 08:45:45;;;;;;;27.45;25.02;;;;;;;24.11;100.00;101153.28;4977307;28;20054;-84
2023/05/26 08:48:12;;;;;;;27.52;25.40;;;;;;;24.05;100.00;101154.44;4972447;28;20050;-83
2023/05/26 08:50:39;;;;;;;24.80;23.10;;;;;;;23.69;100.00;101158.28;4983017;28;20046;-83
2023/05/26 08:53:07;;;;;;;26.05;24.05;;;;;;;23.91;100.00;101155.09;4987138;28;20050;-83
2023/05/26 08:55:35;;;;;;;22.80;21.10;;;;;;;23.61;100.00;101155.34;4985536;28;20077;-83
2023/05/26 08:58:02;;;;;;;24.08;22.20;;;;;;;23.75;100.00;101151.72;4973996;28;20046;-83
2023/05/26 09:00:32;;;;;;;23.30;21.73;;;;;;;23.41;100.00;101143.53;4981633;28;20134;-83
2023/05/26 09:03:01;;;;;;;27.25;25.27;;;;;;;23.22;100.00;101145.28;4984362;28;20061;-83
2023/05/26 09:05:31;;;;;;;25.30;23.70;;;;;;;23.12;100.00;101145.34;4986926;28;20130;-83
2023/05/26 09:08:01;;;;;;;24.83;23.13;;;;;;;23.57;100.00;101146.13;4980098;28;20128;-83
2023/05/26 09:10:31;;;;;;;26.65;20.83;;;;;;;22.83;100.00;101143.28;4976343;28;21101;-84
2023/05/26 09:13:06;;;;;;;25.50;23.85;;;;;;;23.50;100.00;101147.25;4981698;28;20614;-83
2023/05/26 09:15:34;;;;;;;28.35;26.52;;;;;;;23.57;100.00;101144.25;4978974;28;20061;-83
2023/05/26 09:18:06;;;;;;;24.55;22.95;;;;;;;23.40;100.00;101144.63;4987153;28;20053;-84
2023/05/26 09:20:33;;;;;;;29.30;27.20;;;;;;;24.28;100.00;101145.53;4989387;28;20046;-83
2023/05/26 09:23:00;;;;;;;28.08;25.65;;;;;;;24.73;100.00;101148.84;4987732;28;20305;-77
2023/05/26 09:25:31;;;;;;;26.30;24.13;;;;;;;23.67;100.00;101141.44;4983151;28;20058;-77
2023/05/26 09:28:02;;;;;;;26.98;24.98;;;;;;;24.77;100.00;101140.94;4987741;28;20108;-77
2023/05/26 09:30:35;;;;;;;29.00;26.70;;;;;;;25.43;100.00;101140.03;4987851;28;20042;-77
2023/05/26 09:33:04;;;;;;;24.30;22.55;;;;;;;25.00;100.00;101142.00;4989316;28;20046;-77
2023/05/26 09:35:35;;;;;;;20.52;18.88;;;;;;;24.92;100.00;101138.81;4995876;28;20434;-77
2023/05/26 09:38:03;;;;;;;22.48;20.75;;;;;;;24.43;100.00;101141.88;4988424;28;20514;-77
2023/05/26 09:40:30;;;;;;;23.67;21.98;;;;;;;24.54;100.00;101137.97;4987698;28;20050;-78
2023/05/26 09:42:57;;;;;;;22.45;20.75;;;;;;;25.66;100.00;101132.88;4992554;28;20513;-77
2023/05/26 09:45:24;;;;;;;24.17;22.08;;;;;;;25.49;100.00;101122.53;4993721;28;20046;-78
2023/05/26 09:47:58;;;;;;;20.85;19.27;;;;;;;25.28;100.00;101129.41;4986514;28;20039;-77
2023/05/26 09:50:25;;;;;;;22.85;20.92;;;;;;;25.40;100.00;101115.34;4985635;28;20447;-77
2023/05/26 09:52:52;;;;;;;22.05;20.20;;;;;;;25.94;100.00;101117.47;4986250;28;20053;-77
2023/05/26 09:55:19;;;;;;;21.10;19.52;;;;;;;25.62;100.00;101114.72;4982301;28;20049;-84
2023/05/26 09:57:46;;;;;;;23.40;21.38;;;;;;;25.04;100.00;101110.41;4989675;28;20046;-84
2023/05/26 10:00:17;;;;;;;23.15;21.55;;;;;;;25.65;100.00;101116.84;4982648;28;20042;-84
2023/05/26 10:02:46;;;;;;;23.63;21.60;;;;;;;25.62;100.00;101117.44;4983319;28;20048;-84
2023/05/26 10:05:15;;;;;;;23.13;21.35;;;;;;;25.43;100.00;101115.56;4989603;28;20424;-84
2023/05/26 10:07:43;;;;;;;24.40;22.40;;;;;;;25.10;100.00;101120.09;4982881;28;20047;-84
2023/05/26 10:10:14;;;;;;;25.00;23.10;;;;;;;25.25;100.00;101116.41;4989282;28;20538;-84
2023/05/26 10:12:42;;;;;;;23.67;21.67;;;;;;;25.22;100.00;101097.97;4989147;28;20070;-77
2023/05/26 10:15:11;;;;;;;23.92;22.02;;;;;;;25.81;100.00;101091.84;4990352;28;20052;-83
2023/05/26 10:17:39;;;;;;;23.83;21.75;;;;;;;26.15;100.00;101098.84;4992170;28;20167;-77
2023/05/26 10:20:08;;;;;;;21.23;19.65;;;;;;;25.70;100.00;101095.00;4992348;28;20088;-77
2023/05/26 10:22:43;;;;;;;22.23;20.40;;;;;;;25.32;100.00;101095.88;4990127;28;20534;-77
2023/05/26 10:25:20;;;;;;;23.65;21.95;;;;;;;25.52;100.00;101091.22;4982819;28;20090;-77
2023/05/26 10:27:54;;;;;;;25.85;22.55;;;;;;;25.39;100.00;101076.50;4991185;28;20065;-77
2023/05/26 10:30:23;;;;;;;22.23;20.58;;;;;;;24.67;100.00;101085.66;4987557;28;20550;-77
2023/05/26 10:32:53;;;;;;;22.95;20.88;;;;;;;26.25;100.00;101081.50;4991093;28;20050;-77
2023/05/26 10:35:27;;;;;;;24.52;22.70;;;;;;;26.24;100.00;101085.34;4988855;28;20057;-77
2023/05/26 10:37:58;;;;;;;22.45;20.48;;;;;;;25.92;100.00;101069.88;4986307;28;20046;-77
2023/05/26 10:40:29;;;;;;;22.88;21.20;;;;;;;26.07;100.00;101075.03;4986488;28;20487;-77
2023/05/26 10:43:01;;;;;;;22.67;20.95;;;;;;;26.47;100.00;101078.06;4989268;28;20132;-77
2023/05/26 10:45:32;;;;;;;25.08;22.70;;;;;;;27.44;100.00;101072.38;4984409;28;20054;-78
2023/05/26 10:48:06;;;;;;;24.58;22.73;;;;;;;27.78;100.00;101066.38;4989168;28;20569;-77
2023/05/26 10:51:10;;;;;;;23.60;21.92;;;;;;;26.68;100.00;101073.81;4986906;28;20042;-78
2023/05/26 10:53:43;;;;;;;22.45;20.58;;;;;;;26.68;100.00;101059.38;4981011;28;20066;-77
2023/05/26 10:56:12;;;;;;;22.70;21.10;;;;;;;26.13;100.00;101056.69;4995068;28;20054;-78